sensor_id;sensor_type;location;lat;lon;timestamp;P1;durP1;ratioP1;P2;durP2;ratioP2
80842;SDS011;70255;53.686;10.778;2023-05-24T00:00:52;19.90;;;3.20;;
80842;SDS011;70255;53.686;10.778;2023-05-24T00:03:17;15.73;;;3.70;;
80842;SDS011;70255;53.686;10.778;2023-05-24T00:05:43;18.63;;;3.08;;
80842;SDS011;70255;53.686;10.778;2023-05-24T00:08:10;20.40;;;4.07;;
80842;SDS011;70255;53.686;10.778;2023-05-24T00:10:36;20.33;;;3.73;;
80842;SDS011;70255;53.686;10.778;2023-05-24T00:13:01;22.90;;;4.30;;
80842;SDS011;70255;53.686;10.778;2023-05-24T00:15:26;18.30;;;3.30;;
80842;SDS011;70255;53.686;10.778;2023-05-24T00:17:51;15.30;;;2.60;;
80842;SDS011;70255;53.686;10.778;2023-05-24T00:20:16;21.57;;;3.17;;
80842;SDS011;70255;53.686;10.778;2023-05-24T00:22:44;20.25;;;3.17;;
80842;SDS011;70255;53.686;10.778;2023-05-24T00:25:10;20.20;;;3.28;;
80842;SDS011;70255;53.686;10.778;2023-05-24T00:27:35;15.70;;;3.58;;
80842;SDS011;70255;53.686;10.778;2023-05-24T00:30:04;17.67;;;3.88;;
80842;SDS011;70255;53.686;10.778;2023-05-24T00:32:30;13.95;;;3.33;;
80842;SDS011;70255;53.686;10.778;2023-05-24T00:34:55;17.40;;;3.07;;
80842;SDS011;70255;53.686;10.778;2023-05-24T00:37:20;21.63;;;4.05;;
80842;SDS011;70255;53.686;10.778;2023-05-24T00:39:46;17.63;;;3.33;;
80842;SDS011;70255;53.686;10.778;2023-05-24T00:42:11;19.27;;;3.37;;
80842;SDS011;70255;53.686;10.778;2023-05-24T00:44:36;20.20;;;4.20;;
80842;SDS011;70255;53.686;10.778;2023-05-24T00:47:02;18.23;;;3.17;;
80842;SDS011;70255;53.686;10.778;2023-05-24T00:49:27;16.50;;;3.17;;
80842;SDS011;70255;53.686;10.778;2023-05-24T00:51:53;13.38;;;3.42;;
80842;SDS011;70255;53.686;10.778;2023-05-24T00:54:18;20.33;;;3.25;;
80842;SDS011;70255;53.686;10.778;2023-05-24T00:56:44;20.00;;;4.15;;
80842;SDS011;70255;53.686;10.778;2023-05-24T00:59:09;15.87;;;3.27;;
80842;SDS011;70255;53.686;10.778;2023-05-24T01:01:35;20.90;;;3.50;;
80842;SDS011;70255;53.686;10.778;2023-05-24T01:04:01;20.90;;;4.03;;
80842;SDS011;70255;53.686;10.778;2023-05-24T01:06:27;22.08;;;3.58;;
80842;SDS011;70255;53.686;10.778;2023-05-24T01:08:55;18.83;;;3.20;;
80842;SDS011;70255;53.686;10.778;2023-05-24T01:13:52;16.35;;;3.25;;
80842;SDS011;70255;53.686;10.778;2023-05-24T01:16:22;23.77;;;4.10;;
80842;SDS011;70255;53.686;10.778;2023-05-24T01:18:55;22.58;;;4.88;;
80842;SDS011;70255;53.686;10.778;2023-05-24T01:26:31;17.08;;;3.78;;
80842;SDS011;70255;53.686;10.778;2023-05-24T01:29:01;22.48;;;3.67;;
80842;SDS011;70255;53.686;10.778;2023-05-24T01:31:26;17.65;;;4.57;;
80842;SDS011;70255;53.686;10.778;2023-05-24T01:33:51;18.13;;;3.58;;
80842;SDS011;70255;53.686;10.778;2023-05-24T01:36:17;18.80;;;3.70;;
80842;SDS011;70255;53.686;10.778;2023-05-24T01:38:42;18.85;;;4.18;;
80842;SDS011;70255;53.686;10.778;2023-05-24T01:43:51;16.40;;;3.70;;
80842;SDS011;70255;53.686;10.778;2023-05-24T01:51:17;20.23;;;4.57;;
80842;SDS011;70255;53.686;10.778;2023-05-24T01:53:43;17.77;;;3.70;;
80842;SDS011;70255;53.686;10.778;2023-05-24T01:56:10;19.90;;;3.55;;
80842;SDS011;70255;53.686;10.778;2023-05-24T01:58:37;17.77;;;3.42;;
80842;SDS011;70255;53.686;10.778;2023-05-24T02:01:03;31.23;;;4.70;;
80842;SDS011;70255;53.686;10.778;2023-05-24T02:03:28;25.63;;;4.35;;
80842;SDS011;70255;53.686;10.778;2023-05-24T02:05:53;21.37;;;4.37;;
80842;SDS011;70255;53.686;10.778;2023-05-24T02:08:19;28.30;;;4.60;;
80842;SDS011;70255;53.686;10.778;2023-05-24T02:10:45;23.83;;;4.47;;
80842;SDS011;70255;53.686;10.778;2023-05-24T02:13:10;25.00;;;3.67;;
80842;SDS011;70255;53.686;10.778;2023-05-24T02:15:35;17.50;;;3.60;;
80842;SDS011;70255;53.686;10.778;2023-05-24T02:18:00;16.80;;;4.23;;
80842;SDS011;70255;53.686;10.778;2023-05-24T02:20:26;19.58;;;3.28;;
80842;SDS011;70255;53.686;10.778;2023-05-24T02:22:54;29.88;;;5.53;;
80842;SDS011;70255;53.686;10.778;2023-05-24T02:25:20;21.85;;;3.83;;
80842;SDS011;70255;53.686;10.778;2023-05-24T02:27:45;20.33;;;4.07;;
80842;SDS011;70255;53.686;10.778;2023-05-24T02:30:12;24.73;;;4.13;;
80842;SDS011;70255;53.686;10.778;2023-05-24T02:32:37;27.83;;;5.00;;
80842;SDS011;70255;53.686;10.778;2023-05-24T02:35:03;24.73;;;4.43;;
80842;SDS011;70255;53.686;10.778;2023-05-24T02:37:28;25.90;;;4.57;;
80842;SDS011;70255;53.686;10.778;2023-05-24T02:39:53;23.80;;;4.00;;
80842;SDS011;70255;53.686;10.778;2023-05-24T02:42:18;25.67;;;4.47;;
80842;SDS011;70255;53.686;10.778;2023-05-24T02:44:44;28.93;;;4.23;;
80842;SDS011;70255;53.686;10.778;2023-05-24T02:47:12;30.58;;;5.10;;
80842;SDS011;70255;53.686;10.778;2023-05-24T02:49:38;27.45;;;5.25;;
80842;SDS011;70255;53.686;10.778;2023-05-24T02:52:03;18.67;;;3.63;;
80842;SDS011;70255;53.686;10.778;2023-05-24T02:54:29;19.58;;;4.45;;
80842;SDS011;70255;53.686;10.778;2023-05-24T02:56:54;23.85;;;4.57;;
80842;SDS011;70255;53.686;10.778;2023-05-24T02:59:22;19.55;;;3.50;;
80842;SDS011;70255;53.686;10.778;2023-05-24T03:01:47;24.33;;;4.55;;
80842;SDS011;70255;53.686;10.778;2023-05-24T03:04:13;24.42;;;3.97;;
80842;SDS011;70255;53.686;10.778;2023-05-24T03:06:38;19.87;;;3.40;;
80842;SDS011;70255;53.686;10.778;2023-05-24T03:09:03;22.77;;;3.87;;
80842;SDS011;70255;53.686;10.778;2023-05-24T03:11:29;32.03;;;4.63;;
80842;SDS011;70255;53.686;10.778;2023-05-24T03:13:54;23.87;;;3.73;;
80842;SDS011;70255;53.686;10.778;2023-05-24T03:16:19;15.85;;;4.05;;
80842;SDS011;70255;53.686;10.778;2023-05-24T03:18:45;20.00;;;4.47;;
80842;SDS011;70255;53.686;10.778;2023-05-24T03:21:10;28.85;;;4.10;;
80842;SDS011;70255;53.686;10.778;2023-05-24T03:23:35;25.10;;;5.50;;
80842;SDS011;70255;53.686;10.778;2023-05-24T03:26:01;21.20;;;3.97;;
80842;SDS011;70255;53.686;10.778;2023-05-24T03:28:26;24.13;;;4.17;;
80842;SDS011;70255;53.686;10.778;2023-05-24T03:30:51;23.38;;;5.10;;
80842;SDS011;70255;53.686;10.778;2023-05-24T03:33:16;22.50;;;4.90;;
80842;SDS011;70255;53.686;10.778;2023-05-24T03:35:42;17.73;;;3.63;;
80842;SDS011;70255;53.686;10.778;2023-05-24T03:38:07;22.23;;;4.70;;
80842;SDS011;70255;53.686;10.778;2023-05-24T03:40:32;29.23;;;5.50;;
80842;SDS011;70255;53.686;10.778;2023-05-24T03:42:58;17.95;;;4.13;;
80842;SDS011;70255;53.686;10.778;2023-05-24T03:45:24;22.00;;;4.95;;
80842;SDS011;70255;53.686;10.778;2023-05-24T03:47:49;19.33;;;4.25;;
80842;SDS011;70255;53.686;10.778;2023-05-24T03:50:14;23.13;;;5.10;;
80842;SDS011;70255;53.686;10.778;2023-05-24T03:52:40;20.93;;;4.13;;
80842;SDS011;70255;53.686;10.778;2023-05-24T03:55:06;23.88;;;4.40;;
80842;SDS011;70255;53.686;10.778;2023-05-24T03:57:31;23.27;;;4.38;;
80842;SDS011;70255;53.686;10.778;2023-05-24T03:59:56;22.97;;;4.67;;
80842;SDS011;70255;53.686;10.778;2023-05-24T04:02:21;25.33;;;5.13;;
80842;SDS011;70255;53.686;10.778;2023-05-24T04:04:47;25.00;;;4.73;;
80842;SDS011;70255;53.686;10.778;2023-05-24T04:07:12;16.47;;;4.10;;
80842;SDS011;70255;53.686;10.778;2023-05-24T04:09:39;16.42;;;3.58;;
80842;SDS011;70255;53.686;10.778;2023-05-24T04:12:04;22.75;;;4.40;;
80842;SDS011;70255;53.686;10.778;2023-05-24T04:14:30;21.83;;;3.80;;
80842;SDS011;70255;53.686;10.778;2023-05-24T04:16:55;17.23;;;4.40;;
80842;SDS011;70255;53.686;10.778;2023-05-24T04:19:21;17.95;;;4.20;;
80842;SDS011;70255;53.686;10.778;2023-05-24T04:21:46;30.48;;;4.65;;
80842;SDS011;70255;53.686;10.778;2023-05-24T04:24:11;23.37;;;5.00;;
80842;SDS011;70255;53.686;10.778;2023-05-24T04:26:37;20.03;;;4.07;;
80842;SDS011;70255;53.686;10.778;2023-05-24T04:29:02;20.43;;;3.73;;
80842;SDS011;70255;53.686;10.778;2023-05-24T04:31:28;25.90;;;4.80;;
80842;SDS011;70255;53.686;10.778;2023-05-24T04:33:55;27.42;;;3.95;;
80842;SDS011;70255;53.686;10.778;2023-05-24T04:36:21;21.50;;;4.50;;
80842;SDS011;70255;53.686;10.778;2023-05-24T04:38:49;21.02;;;4.30;;
80842;SDS011;70255;53.686;10.778;2023-05-24T04:43:42;27.75;;;5.20;;
80842;SDS011;70255;53.686;10.778;2023-05-24T04:46:08;21.17;;;4.40;;
80842;SDS011;70255;53.686;10.778;2023-05-24T04:48:33;25.90;;;4.57;;
80842;SDS011;70255;53.686;10.778;2023-05-24T04:50:58;25.05;;;4.35;;
80842;SDS011;70255;53.686;10.778;2023-05-24T04:53:24;26.70;;;5.20;;
80842;SDS011;70255;53.686;10.778;2023-05-24T04:55:50;24.42;;;5.00;;
80842;SDS011;70255;53.686;10.778;2023-05-24T04:58:15;21.85;;;4.47;;
80842;SDS011;70255;53.686;10.778;2023-05-24T05:00:41;23.77;;;4.05;;
80842;SDS011;70255;53.686;10.778;2023-05-24T05:03:07;18.00;;;3.97;;
80842;SDS011;70255;53.686;10.778;2023-05-24T05:05:32;26.02;;;4.32;;
80842;SDS011;70255;53.686;10.778;2023-05-24T05:07:57;24.67;;;4.10;;
80842;SDS011;70255;53.686;10.778;2023-05-24T05:10:22;23.30;;;4.70;;
80842;SDS011;70255;53.686;10.778;2023-05-24T05:12:48;22.83;;;4.80;;
80842;SDS011;70255;53.686;10.778;2023-05-24T05:15:13;26.48;;;5.47;;
80842;SDS011;70255;53.686;10.778;2023-05-24T05:17:38;27.48;;;5.03;;
80842;SDS011;70255;53.686;10.778;2023-05-24T05:20:04;25.85;;;4.35;;
80842;SDS011;70255;53.686;10.778;2023-05-24T05:22:30;20.92;;;4.53;;
80842;SDS011;70255;53.686;10.778;2023-05-24T05:24:55;27.48;;;4.15;;
80842;SDS011;70255;53.686;10.778;2023-05-24T05:27:20;22.33;;;4.30;;
80842;SDS011;70255;53.686;10.778;2023-05-24T05:29:45;25.77;;;4.73;;
80842;SDS011;70255;53.686;10.778;2023-05-24T05:32:11;25.02;;;4.70;;
80842;SDS011;70255;53.686;10.778;2023-05-24T05:34:36;26.33;;;5.23;;
80842;SDS011;70255;53.686;10.778;2023-05-24T05:37:01;33.13;;;5.10;;
80842;SDS011;70255;53.686;10.778;2023-05-24T05:39:27;18.42;;;4.65;;
80842;SDS011;70255;53.686;10.778;2023-05-24T05:41:52;25.97;;;6.63;;
80842;SDS011;70255;53.686;10.778;2023-05-24T05:44:17;24.63;;;4.88;;
80842;SDS011;70255;53.686;10.778;2023-05-24T05:46:42;26.60;;;4.73;;
80842;SDS011;70255;53.686;10.778;2023-05-24T05:49:10;29.65;;;5.05;;
80842;SDS011;70255;53.686;10.778;2023-05-24T05:51:35;23.33;;;4.78;;
80842;SDS011;70255;53.686;10.778;2023-05-24T05:54:02;29.67;;;5.05;;
80842;SDS011;70255;53.686;10.778;2023-05-24T05:56:27;25.83;;;4.83;;
80842;SDS011;70255;53.686;10.778;2023-05-24T05:58:53;28.23;;;5.50;;
80842;SDS011;70255;53.686;10.778;2023-05-24T06:01:18;20.85;;;4.93;;
80842;SDS011;70255;53.686;10.778;2023-05-24T06:03:43;28.43;;;4.63;;
80842;SDS011;70255;53.686;10.778;2023-05-24T06:06:08;23.23;;;4.67;;
80842;SDS011;70255;53.686;10.778;2023-05-24T06:08:34;29.67;;;5.60;;
80842;SDS011;70255;53.686;10.778;2023-05-24T06:10:59;23.10;;;4.73;;
80842;SDS011;70255;53.686;10.778;2023-05-24T06:13:25;22.63;;;4.53;;
80842;SDS011;70255;53.686;10.778;2023-05-24T06:15:52;28.20;;;5.25;;
80842;SDS011;70255;53.686;10.778;2023-05-24T06:18:17;20.48;;;4.28;;
80842;SDS011;70255;53.686;10.778;2023-05-24T06:20:42;13.67;;;3.80;;
80842;SDS011;70255;53.686;10.778;2023-05-24T06:23:08;16.58;;;3.60;;
80842;SDS011;70255;53.686;10.778;2023-05-24T06:25:33;20.40;;;3.80;;
80842;SDS011;70255;53.686;10.778;2023-05-24T06:27:59;17.70;;;3.80;;
80842;SDS011;70255;53.686;10.778;2023-05-24T06:30:24;18.50;;;3.73;;
80842;SDS011;70255;53.686;10.778;2023-05-24T06:32:50;18.92;;;3.63;;
80842;SDS011;70255;53.686;10.778;2023-05-24T06:35:15;17.03;;;3.90;;
80842;SDS011;70255;53.686;10.778;2023-05-24T06:37:40;22.50;;;4.47;;
80842;SDS011;70255;53.686;10.778;2023-05-24T06:40:06;20.40;;;4.45;;
80842;SDS011;70255;53.686;10.778;2023-05-24T06:42:33;18.25;;;3.95;;
80842;SDS011;70255;53.686;10.778;2023-05-24T06:44:59;31.40;;;4.20;;
80842;SDS011;70255;53.686;10.778;2023-05-24T06:47:24;21.23;;;4.00;;
80842;SDS011;70255;53.686;10.778;2023-05-24T06:49:49;18.70;;;3.83;;
80842;SDS011;70255;53.686;10.778;2023-05-24T06:52:15;15.27;;;3.83;;
80842;SDS011;70255;53.686;10.778;2023-05-24T06:54:40;16.50;;;4.10;;
80842;SDS011;70255;53.686;10.778;2023-05-24T06:57:05;18.30;;;3.77;;
80842;SDS011;70255;53.686;10.778;2023-05-24T06:59:30;15.03;;;3.93;;
80842;SDS011;70255;53.686;10.778;2023-05-24T07:01:56;18.95;;;4.68;;
80842;SDS011;70255;53.686;10.778;2023-05-24T07:04:24;16.20;;;4.38;;
80842;SDS011;70255;53.686;10.778;2023-05-24T07:06:49;16.15;;;3.33;;
80842;SDS011;70255;53.686;10.778;2023-05-24T07:09:15;13.07;;;3.92;;
80842;SDS011;70255;53.686;10.778;2023-05-24T07:11:41;21.15;;;4.63;;
80842;SDS011;70255;53.686;10.778;2023-05-24T07:14:06;18.87;;;3.77;;
80842;SDS011;70255;53.686;10.778;2023-05-24T07:16:31;20.00;;;4.88;;
80842;SDS011;70255;53.686;10.778;2023-05-24T07:18:56;19.00;;;4.43;;
80842;SDS011;70255;53.686;10.778;2023-05-24T07:21:22;18.98;;;4.28;;
80842;SDS011;70255;53.686;10.778;2023-05-24T07:23:49;19.70;;;3.92;;
80842;SDS011;70255;53.686;10.778;2023-05-24T07:26:14;19.65;;;4.70;;
80842;SDS011;70255;53.686;10.778;2023-05-24T07:28:40;23.03;;;4.97;;
80842;SDS011;70255;53.686;10.778;2023-05-24T07:31:07;18.88;;;4.18;;
80842;SDS011;70255;53.686;10.778;2023-05-24T07:33:34;23.23;;;5.38;;
80842;SDS011;70255;53.686;10.778;2023-05-24T07:36:00;22.25;;;4.75;;
80842;SDS011;70255;53.686;10.778;2023-05-24T07:38:25;23.20;;;4.70;;
80842;SDS011;70255;53.686;10.778;2023-05-24T07:40:50;27.40;;;5.75;;
80842;SDS011;70255;53.686;10.778;2023-05-24T07:43:16;17.25;;;4.53;;
80842;SDS011;70255;53.686;10.778;2023-05-24T07:45:42;16.77;;;4.10;;
80842;SDS011;70255;53.686;10.778;2023-05-24T07:48:07;19.10;;;4.83;;
80842;SDS011;70255;53.686;10.778;2023-05-24T07:50:32;12.83;;;4.27;;
80842;SDS011;70255;53.686;10.778;2023-05-24T07:52:57;21.50;;;3.73;;
80842;SDS011;70255;53.686;10.778;2023-05-24T07:55:23;16.47;;;4.23;;
80842;SDS011;70255;53.686;10.778;2023-05-24T07:57:49;25.85;;;4.63;;
80842;SDS011;70255;53.686;10.778;2023-05-24T08:00:15;21.17;;;4.97;;
80842;SDS011;70255;53.686;10.778;2023-05-24T08:02:43;20.13;;;4.78;;
80842;SDS011;70255;53.686;10.778;2023-05-24T08:05:12;25.08;;;5.10;;
80842;SDS011;70255;53.686;10.778;2023-05-24T08:07:38;19.02;;;5.78;;
80842;SDS011;70255;53.686;10.778;2023-05-24T08:10:04;18.80;;;4.72;;
80842;SDS011;70255;53.686;10.778;2023-05-24T08:12:30;19.67;;;5.03;;
80842;SDS011;70255;53.686;10.778;2023-05-24T08:14:55;16.55;;;4.32;;
80842;SDS011;70255;53.686;10.778;2023-05-24T08:17:20;18.95;;;3.95;;
80842;SDS011;70255;53.686;10.778;2023-05-24T08:19:46;14.40;;;3.60;;
80842;SDS011;70255;53.686;10.778;2023-05-24T08:22:11;25.30;;;5.20;;
80842;SDS011;70255;53.686;10.778;2023-05-24T08:24:36;22.27;;;4.50;;
80842;SDS011;70255;53.686;10.778;2023-05-24T08:27:02;15.52;;;4.20;;
80842;SDS011;70255;53.686;10.778;2023-05-24T08:29:28;22.23;;;5.38;;
80842;SDS011;70255;53.686;10.778;2023-05-24T08:31:53;20.13;;;5.03;;
80842;SDS011;70255;53.686;10.778;2023-05-24T08:34:18;17.43;;;3.80;;
80842;SDS011;70255;53.686;10.778;2023-05-24T08:36:44;18.55;;;4.18;;
80842;SDS011;70255;53.686;10.778;2023-05-24T08:39:09;17.05;;;5.00;;
80842;SDS011;70255;53.686;10.778;2023-05-24T08:41:35;15.87;;;3.53;;
80842;SDS011;70255;53.686;10.778;2023-05-24T08:44:05;17.08;;;4.95;;
80842;SDS011;70255;53.686;10.778;2023-05-24T08:46:34;20.00;;;3.75;;
80842;SDS011;70255;53.686;10.778;2023-05-24T08:49:01;19.50;;;4.00;;
80842;SDS011;70255;53.686;10.778;2023-05-24T08:51:29;17.48;;;4.30;;
80842;SDS011;70255;53.686;10.778;2023-05-24T08:53:58;19.00;;;4.15;;
80842;SDS011;70255;53.686;10.778;2023-05-24T08:58:49;18.23;;;3.38;;
80842;SDS011;70255;53.686;10.778;2023-05-24T09:01:15;14.82;;;4.45;;
80842;SDS011;70255;53.686;10.778;2023-05-24T09:03:40;11.30;;;2.67;;
80842;SDS011;70255;53.686;10.778;2023-05-24T09:06:08;16.33;;;3.90;;
80842;SDS011;70255;53.686;10.778;2023-05-24T09:08:33;14.85;;;4.00;;
80842;SDS011;70255;53.686;10.778;2023-05-24T09:11:00;18.98;;;4.45;;
80842;SDS011;70255;53.686;10.778;2023-05-24T09:13:25;12.23;;;3.05;;
80842;SDS011;70255;53.686;10.778;2023-05-24T09:15:51;16.88;;;4.78;;
80842;SDS011;70255;53.686;10.778;2023-05-24T09:18:16;11.40;;;2.95;;
80842;SDS011;70255;53.686;10.778;2023-05-24T09:20:42;16.55;;;3.60;;
80842;SDS011;70255;53.686;10.778;2023-05-24T09:23:07;12.23;;;3.30;;
80842;SDS011;70255;53.686;10.778;2023-05-24T09:25:32;13.82;;;2.95;;
80842;SDS011;70255;53.686;10.778;2023-05-24T09:27:57;14.70;;;3.35;;
80842;SDS011;70255;53.686;10.778;2023-05-24T09:30:29;12.32;;;2.92;;
80842;SDS011;70255;53.686;10.778;2023-05-24T09:32:57;12.90;;;3.10;;
80842;SDS011;70255;53.686;10.778;2023-05-24T09:35:23;15.27;;;3.95;;
80842;SDS011;70255;53.686;10.778;2023-05-24T09:37:52;14.27;;;3.22;;
80842;SDS011;70255;53.686;10.778;2023-05-24T09:40:19;14.77;;;3.33;;
80842;SDS011;70255;53.686;10.778;2023-05-24T09:42:44;15.95;;;3.00;;
80842;SDS011;70255;53.686;10.778;2023-05-24T09:45:10;13.25;;;3.53;;
80842;SDS011;70255;53.686;10.778;2023-05-24T09:47:36;14.10;;;2.70;;
80842;SDS011;70255;53.686;10.778;2023-05-24T09:50:02;15.57;;;3.20;;
80842;SDS011;70255;53.686;10.778;2023-05-24T09:52:27;16.15;;;3.33;;
80842;SDS011;70255;53.686;10.778;2023-05-24T09:54:53;12.57;;;2.97;;
80842;SDS011;70255;53.686;10.778;2023-05-24T09:57:18;14.25;;;3.05;;
80842;SDS011;70255;53.686;10.778;2023-05-24T09:59:46;8.15;;;2.72;;
80842;SDS011;70255;53.686;10.778;2023-05-24T10:02:12;7.72;;;2.47;;
80842;SDS011;70255;53.686;10.778;2023-05-24T10:04:38;12.20;;;3.47;;
80842;SDS011;70255;53.686;10.778;2023-05-24T10:07:07;14.02;;;3.05;;
80842;SDS011;70255;53.686;10.778;2023-05-24T10:09:33;9.85;;;2.05;;
80842;SDS011;70255;53.686;10.778;2023-05-24T10:12:02;14.73;;;2.72;;
80842;SDS011;70255;53.686;10.778;2023-05-24T10:14:31;9.52;;;2.05;;
80842;SDS011;70255;53.686;10.778;2023-05-24T10:16:56;12.23;;;2.47;;
80842;SDS011;70255;53.686;10.778;2023-05-24T10:19:22;7.60;;;2.22;;
80842;SDS011;70255;53.686;10.778;2023-05-24T10:21:48;15.80;;;3.45;;
80842;SDS011;70255;53.686;10.778;2023-05-24T10:24:13;10.43;;;2.50;;
80842;SDS011;70255;53.686;10.778;2023-05-24T10:26:41;8.38;;;2.30;;
80842;SDS011;70255;53.686;10.778;2023-05-24T10:29:07;10.35;;;3.17;;
80842;SDS011;70255;53.686;10.778;2023-05-24T10:31:35;6.68;;;2.10;;
80842;SDS011;70255;53.686;10.778;2023-05-24T10:34:01;10.95;;;2.53;;
80842;SDS011;70255;53.686;10.778;2023-05-24T10:36:27;11.45;;;2.35;;
80842;SDS011;70255;53.686;10.778;2023-05-24T10:38:53;10.40;;;2.10;;
80842;SDS011;70255;53.686;10.778;2023-05-24T10:41:18;13.02;;;2.88;;
80842;SDS011;70255;53.686;10.778;2023-05-24T10:43:46;6.28;;;2.55;;
80842;SDS011;70255;53.686;10.778;2023-05-24T10:48:37;7.35;;;2.17;;
80842;SDS011;70255;53.686;10.778;2023-05-24T10:51:26;11.57;;;2.67;;
80842;SDS011;70255;53.686;10.778;2023-05-24T10:53:54;7.72;;;2.00;;
80842;SDS011;70255;53.686;10.778;2023-05-24T10:56:21;7.80;;;2.03;;
80842;SDS011;70255;53.686;10.778;2023-05-24T11:01:26;7.38;;;2.10;;
80842;SDS011;70255;53.686;10.778;2023-05-24T11:03:52;5.63;;;1.85;;
80842;SDS011;70255;53.686;10.778;2023-05-24T11:06:17;7.32;;;2.03;;
80842;SDS011;70255;53.686;10.778;2023-05-24T11:08:43;8.05;;;1.83;;
80842;SDS011;70255;53.686;10.778;2023-05-24T11:13:35;7.00;;;1.90;;
80842;SDS011;70255;53.686;10.778;2023-05-24T11:16:01;6.50;;;1.95;;
80842;SDS011;70255;53.686;10.778;2023-05-24T11:18:26;7.82;;;2.30;;
80842;SDS011;70255;53.686;10.778;2023-05-24T11:20:51;11.05;;;1.92;;
80842;SDS011;70255;53.686;10.778;2023-05-24T11:23:16;5.17;;;1.80;;
80842;SDS011;70255;53.686;10.778;2023-05-24T11:25:44;7.32;;;1.90;;
80842;SDS011;70255;53.686;10.778;2023-05-24T11:28:11;8.45;;;2.15;;
80842;SDS011;70255;53.686;10.778;2023-05-24T11:30:43;6.15;;;1.90;;
80842;SDS011;70255;53.686;10.778;2023-05-24T11:33:19;8.18;;;2.08;;
80842;SDS011;70255;53.686;10.778;2023-05-24T11:35:45;8.65;;;1.80;;
80842;SDS011;70255;53.686;10.778;2023-05-24T11:38:10;8.50;;;2.80;;
80842;SDS011;70255;53.686;10.778;2023-05-24T11:40:37;4.85;;;1.50;;
80842;SDS011;70255;53.686;10.778;2023-05-24T11:43:04;5.30;;;1.67;;
80842;SDS011;70255;53.686;10.778;2023-05-24T11:45:30;8.60;;;2.15;;
80842;SDS011;70255;53.686;10.778;2023-05-24T11:47:56;6.50;;;2.08;;
80842;SDS011;70255;53.686;10.778;2023-05-24T11:50:24;8.38;;;1.98;;
80842;SDS011;70255;53.686;10.778;2023-05-24T11:52:50;11.52;;;2.58;;
80842;SDS011;70255;53.686;10.778;2023-05-24T11:55:22;6.03;;;1.95;;
80842;SDS011;70255;53.686;10.778;2023-05-24T11:57:48;7.90;;;1.95;;
80842;SDS011;70255;53.686;10.778;2023-05-24T12:00:22;8.27;;;2.05;;
80842;SDS011;70255;53.686;10.778;2023-05-24T12:02:48;7.47;;;2.30;;
80842;SDS011;70255;53.686;10.778;2023-05-24T12:05:13;6.70;;;1.90;;
80842;SDS011;70255;53.686;10.778;2023-05-24T12:07:42;7.43;;;2.38;;
80842;SDS011;70255;53.686;10.778;2023-05-24T12:10:12;7.57;;;1.95;;
80842;SDS011;70255;53.686;10.778;2023-05-24T12:12:41;8.27;;;2.03;;
80842;SDS011;70255;53.686;10.778;2023-05-24T12:15:06;7.80;;;1.77;;
80842;SDS011;70255;53.686;10.778;2023-05-24T12:17:32;9.05;;;2.17;;
80842;SDS011;70255;53.686;10.778;2023-05-24T12:19:57;7.30;;;1.83;;
80842;SDS011;70255;53.686;10.778;2023-05-24T12:22:25;9.67;;;2.20;;
80842;SDS011;70255;53.686;10.778;2023-05-24T12:27:16;7.63;;;1.95;;
80842;SDS011;70255;53.686;10.778;2023-05-24T12:29:42;9.73;;;2.20;;
80842;SDS011;70255;53.686;10.778;2023-05-24T12:32:08;8.82;;;2.17;;
80842;SDS011;70255;53.686;10.778;2023-05-24T12:34:36;8.23;;;1.85;;
80842;SDS011;70255;53.686;10.778;2023-05-24T12:37:01;10.90;;;2.35;;
80842;SDS011;70255;53.686;10.778;2023-05-24T12:39:27;7.53;;;2.33;;
80842;SDS011;70255;53.686;10.778;2023-05-24T12:44:23;8.77;;;1.87;;
80842;SDS011;70255;53.686;10.778;2023-05-24T12:46:49;6.32;;;1.80;;
80842;SDS011;70255;53.686;10.778;2023-05-24T12:49:17;5.63;;;2.13;;
80842;SDS011;70255;53.686;10.778;2023-05-24T12:51:42;8.40;;;1.80;;
80842;SDS011;70255;53.686;10.778;2023-05-24T12:54:07;7.33;;;2.33;;
80842;SDS011;70255;53.686;10.778;2023-05-24T12:56:32;7.60;;;2.93;;
80842;SDS011;70255;53.686;10.778;2023-05-24T12:58:58;6.32;;;2.00;;
80842;SDS011;70255;53.686;10.778;2023-05-24T13:01:24;7.75;;;2.10;;
80842;SDS011;70255;53.686;10.778;2023-05-24T13:03:49;4.30;;;1.80;;
80842;SDS011;70255;53.686;10.778;2023-05-24T13:06:15;5.00;;;1.90;;
80842;SDS011;70255;53.686;10.778;2023-05-24T13:08:40;9.20;;;2.05;;
80842;SDS011;70255;53.686;10.778;2023-05-24T13:11:06;7.78;;;2.75;;
80842;SDS011;70255;53.686;10.778;2023-05-24T13:13:31;7.00;;;2.27;;
80842;SDS011;70255;53.686;10.778;2023-05-24T13:15:56;7.43;;;2.22;;
80842;SDS011;70255;53.686;10.778;2023-05-24T13:18:22;7.85;;;1.88;;
80842;SDS011;70255;53.686;10.778;2023-05-24T13:20:47;10.75;;;2.30;;
80842;SDS011;70255;53.686;10.778;2023-05-24T13:23:12;7.73;;;1.87;;
80842;SDS011;70255;53.686;10.778;2023-05-24T13:25:38;8.80;;;2.30;;
80842;SDS011;70255;53.686;10.778;2023-05-24T13:28:03;8.60;;;2.33;;
80842;SDS011;70255;53.686;10.778;2023-05-24T13:30:28;7.10;;;2.55;;
80842;SDS011;70255;53.686;10.778;2023-05-24T13:32:54;6.70;;;2.40;;
80842;SDS011;70255;53.686;10.778;2023-05-24T13:35:19;8.60;;;2.20;;
80842;SDS011;70255;53.686;10.778;2023-05-24T13:37:46;8.27;;;2.20;;
80842;SDS011;70255;53.686;10.778;2023-05-24T13:40:11;7.53;;;2.17;;
80842;SDS011;70255;53.686;10.778;2023-05-24T13:42:37;7.85;;;2.08;;
80842;SDS011;70255;53.686;10.778;2023-05-24T13:45:02;6.97;;;1.93;;
80842;SDS011;70255;53.686;10.778;2023-05-24T13:47:28;7.70;;;2.13;;
80842;SDS011;70255;53.686;10.778;2023-05-24T13:49:53;5.28;;;2.50;;
80842;SDS011;70255;53.686;10.778;2023-05-24T13:52:18;7.22;;;1.88;;
80842;SDS011;70255;53.686;10.778;2023-05-24T13:54:44;6.27;;;2.50;;
80842;SDS011;70255;53.686;10.778;2023-05-24T13:57:09;9.50;;;2.65;;
80842;SDS011;70255;53.686;10.778;2023-05-24T13:59:35;6.80;;;1.98;;
80842;SDS011;70255;53.686;10.778;2023-05-24T14:02:00;7.23;;;2.27;;
80842;SDS011;70255;53.686;10.778;2023-05-24T14:04:25;9.40;;;2.43;;
80842;SDS011;70255;53.686;10.778;2023-05-24T14:06:50;7.38;;;2.13;;
80842;SDS011;70255;53.686;10.778;2023-05-24T14:09:16;6.75;;;2.67;;
80842;SDS011;70255;53.686;10.778;2023-05-24T14:11:41;7.60;;;2.40;;
80842;SDS011;70255;53.686;10.778;2023-05-24T14:14:08;5.07;;;2.25;;
80842;SDS011;70255;53.686;10.778;2023-05-24T14:16:33;8.23;;;2.47;;
80842;SDS011;70255;53.686;10.778;2023-05-24T14:18:58;8.13;;;2.50;;
80842;SDS011;70255;53.686;10.778;2023-05-24T14:21:23;8.73;;;2.33;;
80842;SDS011;70255;53.686;10.778;2023-05-24T14:23:50;6.30;;;2.20;;
80842;SDS011;70255;53.686;10.778;2023-05-24T14:26:16;6.65;;;1.92;;
80842;SDS011;70255;53.686;10.778;2023-05-24T14:28:41;6.90;;;2.50;;
80842;SDS011;70255;53.686;10.778;2023-05-24T14:31:06;10.03;;;2.33;;
80842;SDS011;70255;53.686;10.778;2023-05-24T14:33:32;7.23;;;2.20;;
80842;SDS011;70255;53.686;10.778;2023-05-24T14:35:57;12.20;;;2.72;;
80842;SDS011;70255;53.686;10.778;2023-05-24T14:38:22;5.73;;;2.07;;
80842;SDS011;70255;53.686;10.778;2023-05-24T14:40:48;6.65;;;2.30;;
80842;SDS011;70255;53.686;10.778;2023-05-24T14:43:15;7.50;;;2.60;;
80842;SDS011;70255;53.686;10.778;2023-05-24T14:45:40;8.40;;;2.33;;
80842;SDS011;70255;53.686;10.778;2023-05-24T14:48:06;8.53;;;3.03;;
80842;SDS011;70255;53.686;10.778;2023-05-24T14:50:31;8.00;;;2.25;;